Time;durP1;ratioP1;P1;durP2;ratioP2;P2;SDS_P1;SDS_P2;PMS_P1;PMS_P2;Temp;Humidity;BMP_temperature;BMP_pressure;BME280_temperature;BME280_humidity;BME280_pressure;Samples;Min_cycle;Max_cycle;Signal;HPM_P1;HPM_P2
2022/09/17 04:02:13;;;;;;;1.23;1.10;;;7.80;96.30;;;;;;5125816;23;20496;-77
2022/09/17 04:04:38;;;;;;;1.20;1.10;;;7.80;96.30;;;;;;4990993;28;20765;-77
2022/09/17 04:07:04;;;;;;;1.97;1.20;;;7.80;96.30;;;;;;4992303;28;20170;-78
2022/09/17 04:09:30;;;;;;;1.77;1.20;;;7.80;96.30;;;;;;4991550;28;20174;-78
2022/09/17 04:11:55;;;;;;;3.30;1.23;;;7.80;96.30;;;;;;4992212;28;20434;-77
2022/09/17 04:14:21;;;;;;;1.87;1.30;;;7.80;96.30;;;;;;4994576;28;20170;-77
2022/09/17 04:16:46;;;;;;;3.03;1.40;;;7.80;96.30;;;;;;4994765;28;20261;-77
2022/09/17 04:19:12;;;;;;;1.47;1.10;;;7.80;96.30;;;;;;4994752;28;20264;-77
2022/09/17 04:24:13;;;;;;;1.43;1.33;;;7.80;96.30;;;;;;5634422;23;20698;-77
2022/09/17 04:26:38;;;;;;;1.83;1.23;;;7.80;96.30;;;;;;4956906;29;20430;-79
2022/09/17 04:29:04;;;;;;;1.50;1.30;;;7.80;96.30;;;;;;4956280;28;20175;-77
2022/09/17 04:31:30;;;;;;;2.60;1.37;;;7.80;96.30;;;;;;4956860;28;20219;-77
2022/09/17 04:33:55;;;;;;;3.60;1.47;;;7.80;96.30;;;;;;4955314;29;20847;-78
2022/09/17 04:36:21;;;;;;;1.40;1.13;;;7.80;96.30;;;;;;4956698;29;20175;-79
2022/09/17 04:38:49;;;;;;;3.17;1.63;;;7.80;96.30;;;;;;4955979;29;20713;-78
2022/09/17 04:41:15;;;;;;;1.40;1.17;;;7.80;96.30;;;;;;4965314;28;20216;-79
2022/09/17 04:43:41;;;;;;;6.83;1.40;;;7.80;96.30;;;;;;4971200;28;20970;-77
2022/09/17 04:46:06;;;;;;;7.43;2.07;;;7.80;96.30;;;;;;4944493;29;20175;-77
2022/09/17 04:48:31;;;;;;;3.03;1.83;;;7.80;96.30;;;;;;4937061;29;20538;-78
2022/09/17 04:50:57;;;;;;;3.37;1.53;;;7.80;96.30;;;;;;4937269;29;20215;-78
2022/09/17 04:53:23;;;;;;;1.90;1.40;;;7.80;96.30;;;;;;4954489;29;20254;-78
2022/09/17 04:55:48;;;;;;;3.80;1.70;;;7.80;96.30;;;;;;4955070;29;20205;-79
2022/09/17 04:58:14;;;;;;;5.50;2.50;;;7.80;96.30;;;;;;4955654;29;20175;-78
2022/09/17 05:00:41;;;;;;;1.50;1.40;;;7.80;96.30;;;;;;4950815;28;20682;-78
2022/09/17 05:03:07;;;;;;;2.43;1.67;;;7.80;96.30;;;;;;4949570;28;20187;-77
2022/09/17 05:05:33;;;;;;;1.77;1.37;;;7.90;96.30;;;;;;4939389;29;20428;-78
2022/09/17 05:07:58;;;;;;;1.30;1.20;;;7.80;96.30;;;;;;4949261;28;20473;-77
2022/09/17 05:10:25;;;;;;;2.87;2.07;;;7.90;96.30;;;;;;4956942;28;20203;-78
2022/09/17 05:12:52;;;;;;;1.80;1.20;;;7.90;96.30;;;;;;4937925;29;20243;-77
2022/09/17 05:15:18;;;;;;;2.53;1.50;;;7.90;96.30;;;;;;4946293;28;20428;-77
2022/09/17 05:17:44;;;;;;;3.20;1.20;;;7.90;96.30;;;;;;4937978;28;20920;-77
2022/09/17 05:20:11;;;;;;;1.50;1.10;;;8.00;96.30;;;;;;4938605;29;20176;-77
2022/09/17 05:22:46;;;;;;;1.10;1.00;;;8.00;96.30;;;;;;4938944;29;20190;-77
2022/09/17 05:25:13;;;;;;;2.37;1.00;;;8.00;96.30;;;;;;4954135;28;20529;-77
2022/09/17 05:27:39;;;;;;;1.37;0.97;;;8.00;96.30;;;;;;4972421;28;20484;-77
2022/09/17 05:30:06;;;;;;;1.83;1.00;;;8.00;96.30;;;;;;4988784;28;21013;-77
2022/09/17 05:32:32;;;;;;;1.10;0.93;;;8.00;96.30;;;;;;4974583;28;20524;-76
2022/09/17 05:34:57;;;;;;;1.10;1.00;;;8.00;96.30;;;;;;4964643;28;20414;-78
2022/09/17 05:37:23;;;;;;;1.60;1.50;;;8.00;96.30;;;;;;4955070;29;20411;-78
2022/09/17 05:39:48;;;;;;;1.27;0.80;;;8.00;96.30;;;;;;4968990;28;20892;-77
2022/09/17 05:42:14;;;;;;;1.30;1.13;;;8.00;96.30;;;;;;4957687;28;20206;-77
2022/09/17 05:44:39;;;;;;;1.90;1.03;;;8.00;96.30;;;;;;4955329;28;20265;-76
2022/09/17 05:47:05;;;;;;;1.00;0.73;;;8.10;96.30;;;;;;4955236;29;20175;-77
2022/09/17 05:49:30;;;;;;;1.20;0.70;;;8.10;96.30;;;;;;4954844;29;20171;-77
2022/09/17 05:51:56;;;;;;;4.90;0.93;;;8.10;96.30;;;;;;4954703;29;20191;-77
2022/09/17 05:54:22;;;;;;;1.20;0.70;;;8.20;96.30;;;;;;4954880;29;20179;-77
2022/09/17 05:56:51;;;;;;;0.80;0.60;;;8.20;96.30;;;;;;4955138;29;20175;-77
2022/09/17 05:59:16;;;;;;;0.97;0.67;;;8.20;96.30;;;;;;4953707;28;20454;-76
2022/09/17 06:01:42;;;;;;;1.27;0.73;;;8.20;96.30;;;;;;4954927;29;20954;-77
2022/09/17 06:04:08;;;;;;;1.00;0.73;;;8.20;96.30;;;;;;4953764;29;20187;-77
2022/09/17 06:06:35;;;;;;;7.90;0.80;;;8.20;96.30;;;;;;4955023;28;20524;-77
2022/09/17 06:09:00;;;;;;;1.57;0.70;;;8.20;96.30;;;;;;4957731;28;20181;-77
2022/09/17 06:11:27;;;;;;;0.90;0.70;;;8.20;96.30;;;;;;4983441;28;20463;-77
2022/09/17 06:13:53;;;;;;;1.00;0.80;;;8.20;96.30;;;;;;4956094;28;20167;-78
2022/09/17 06:16:20;;;;;;;2.00;0.70;;;8.20;96.30;;;;;;4958065;28;20419;-77
2022/09/17 06:18:45;;;;;;;1.30;0.70;;;8.20;96.30;;;;;;4957131;29;20415;-75
2022/09/17 06:21:11;;;;;;;0.90;0.70;;;8.20;96.30;;;;;;4958643;28;20450;-77
2022/09/17 06:23:36;;;;;;;1.53;0.80;;;8.20;96.30;;;;;;4959012;29;20665;-75
2022/09/17 06:26:03;;;;;;;1.23;0.80;;;8.20;96.30;;;;;;4957736;28;20187;-76
2022/09/17 06:28:29;;;;;;;0.90;0.70;;;8.20;96.30;;;;;;4957534;28;20258;-76
2022/09/17 06:30:59;;;;;;;0.90;0.70;;;8.20;96.30;;;;;;4956864;29;20497;-76
2022/09/17 06:33:25;;;;;;;0.80;0.60;;;8.20;96.30;;;;;;4955100;29;20183;-76
2022/09/17 06:35:59;;;;;;;1.10;0.60;;;8.30;96.30;;;;;;4954517;29;20915;-76
2022/09/17 06:38:26;;;;;;;1.83;0.80;;;8.30;96.30;;;;;;4945666;29;20446;-76
2022/09/17 06:40:53;;;;;;;2.40;0.60;;;8.40;96.30;;;;;;4946501;28;20441;-76
2022/09/17 06:43:19;;;;;;;0.90;0.70;;;8.60;96.30;;;;;;4973409;28;20440;-76
2022/09/17 06:45:54;;;;;;;1.00;0.70;;;8.70;96.30;;;;;;4973652;28;20417;-75
2022/09/17 06:48:21;;;;;;;2.60;0.80;;;8.70;96.30;;;;;;4973181;28;20782;-75
2022/09/17 06:50:47;;;;;;;0.90;0.60;;;8.60;96.30;;;;;;4973651;28;20567;-76
2022/09/17 06:53:13;;;;;;;1.13;0.70;;;8.60;96.30;;;;;;4973675;28;20421;-75
2022/09/17 06:55:38;;;;;;;1.30;0.60;;;8.60;96.30;;;;;;4973586;28;20413;-78
2022/09/17 06:58:04;;;;;;;1.27;0.70;;;8.50;96.30;;;;;;4973249;28;20174;-75
2022/09/17 07:00:29;;;;;;;1.07;0.70;;;8.50;96.30;;;;;;4973549;28;20226;-76
2022/09/17 07:02:59;;;;;;;0.90;0.60;;;8.60;96.30;;;;;;4973531;28;20194;-76
2022/09/17 07:05:26;;;;;;;1.30;0.70;;;8.60;96.30;;;;;;4973281;28;20205;-77
2022/09/17 07:07:52;;;;;;;1.40;0.83;;;8.70;96.30;;;;;;4973094;28;20505;-76
2022/09/17 07:10:18;;;;;;;2.37;0.83;;;8.70;96.30;;;;;;4973246;28;20461;-76
2022/09/17 07:12:43;;;;;;;2.07;0.90;;;8.70;96.30;;;;;;4973506;28;20413;-76
2022/09/17 07:15:10;;;;;;;2.70;0.87;;;8.70;96.30;;;;;;4973409;28;20635;-77
2022/09/17 07:17:39;;;;;;;1.20;0.80;;;8.70;96.30;;;;;;4973213;28;20236;-76
2022/09/17 07:20:06;;;;;;;3.63;1.00;;;8.80;96.30;;;;;;4966437;28;20431;-76
2022/09/17 07:22:32;;;;;;;1.87;1.00;;;8.80;96.30;;;;;;4953594;28;20438;-75
2022/09/17 07:24:58;;;;;;;6.03;1.80;;;8.90;96.30;;;;;;4966195;28;20437;-75
2022/09/17 07:27:26;;;;;;;1.83;1.00;;;8.90;96.30;;;;;;4960830;28;20186;-77
2022/09/17 07:29:52;;;;;;;5.30;1.57;;;8.90;96.30;;;;;;4950618;28;20262;-76
2022/09/17 07:32:17;;;;;;;4.03;1.50;;;8.90;96.30;;;;;;4944895;28;20570;-77
2022/09/17 07:34:43;;;;;;;8.27;1.90;;;9.00;96.30;;;;;;4936334;29;20660;-76
2022/09/17 07:37:08;;;;;;;5.10;2.10;;;9.00;96.30;;;;;;4934020;29;20172;-75
2022/09/17 07:39:34;;;;;;;9.60;2.30;;;9.00;96.30;;;;;;4934071;29;20253;-76
2022/09/17 07:41:59;;;;;;;10.50;2.10;;;9.10;96.30;;;;;;4963701;28;20198;-76
2022/09/17 07:44:25;;;;;;;4.93;2.00;;;9.10;96.30;;;;;;4970505;28;20568;-76
2022/09/17 07:46:51;;;;;;;3.97;2.20;;;9.20;96.30;;;;;;4966957;28;20182;-76
2022/09/17 07:49:16;;;;;;;7.07;1.97;;;9.20;96.30;;;;;;4954772;28;20195;-76
2022/09/17 07:51:42;;;;;;;4.83;1.90;;;9.20;96.30;;;;;;4957380;28;20261;-77
2022/09/17 07:54:07;;;;;;;6.80;2.10;;;9.20;96.30;;;;;;4957299;28;20214;-75
2022/09/17 07:56:33;;;;;;;7.80;2.23;;;9.20;96.30;;;;;;4972026;28;20234;-76
2022/09/17 07:59:00;;;;;;;7.90;2.30;;;9.20;96.30;;;;;;4956508;28;20218;-77
2022/09/17 08:01:26;;;;;;;5.87;2.30;;;9.30;96.30;;;;;;4957106;28;20194;-75
2022/09/17 08:03:53;;;;;;;8.00;2.17;;;9.30;96.30;;;;;;4957218;28;20398;-74
2022/09/17 08:06:22;;;;;;;6.57;2.40;;;9.30;96.30;;;;;;4957096;28;20257;-74
2022/09/17 08:08:48;;;;;;;10.40;2.27;;;9.30;96.30;;;;;;4956383;28;20827;-75
2022/09/17 08:11:19;;;;;;;8.20;1.90;;;9.40;96.30;;;;;;4956778;28;20541;-75
2022/09/17 08:13:50;;;;;;;4.27;2.27;;;9.40;96.30;;;;;;4956838;28;20435;-75
2022/09/17 08:16:17;;;;;;;10.50;2.23;;;9.50;96.30;;;;;;4964493;28;20977;-75
2022/09/17 08:18:45;;;;;;;12.53;2.40;;;9.50;96.30;;;;;;4967115;28;20910;-75
2022/09/17 08:21:14;;;;;;;19.57;2.90;;;9.60;96.30;;;;;;4975904;28;20492;-75
2022/09/17 08:23:41;;;;;;;9.27;2.53;;;9.70;96.30;;;;;;4990977;28;20489;-76
2022/09/17 08:26:11;;;;;;;10.43;3.00;;;9.70;96.30;;;;;;4975966;28;20906;-75
2022/09/17 08:28:36;;;;;;;6.63;2.33;;;9.90;96.30;;;;;;4976041;28;20917;-75
2022/09/17 08:31:07;;;;;;;6.17;1.70;;;9.90;96.30;;;;;;4968581;28;20578;-74
2022/09/17 08:33:34;;;;;;;7.10;2.60;;;10.00;96.30;;;;;;4941264;29;20524;-74
2022/09/17 08:36:00;;;;;;;8.27;2.40;;;10.20;96.30;;;;;;4937444;28;20423;-76
2022/09/17 08:38:27;;;;;;;7.80;2.07;;;10.50;96.30;;;;;;4937448;29;20412;-76
2022/09/17 08:41:11;;;;;;;7.10;2.30;;;10.80;96.30;;;;;;4953049;28;20690;-76
2022/09/17 08:43:49;;;;;;;7.63;1.97;;;11.10;96.30;;;;;;4947388;29;20411;-76
2022/09/17 08:46:15;;;;;;;6.47;1.60;;;11.20;96.30;;;;;;4946195;29;20410;-76
2022/09/17 08:49:01;;;;;;;3.97;1.53;;;10.80;96.30;;;;;;4948376;28;20930;-76
2022/09/17 08:51:41;;;;;;;6.77;1.37;;;10.50;96.30;;;;;;4947019;29;20286;-76
2022/09/17 08:54:39;;;;;;;5.83;1.70;;;10.60;96.30;;;;;;4948083;29;20768;-76
2022/09/17 08:57:31;;;;;;;7.00;1.70;;;11.00;96.30;;;;;;4947150;29;20408;-77
2022/09/17 09:00:04;;;;;;;6.30;1.77;;;11.40;96.30;;;;;;4944389;28;20503;-76
2022/09/17 09:02:34;;;;;;;9.00;1.60;;;11.70;96.30;;;;;;4956991;28;20435;-77
2022/09/17 09:05:03;;;;;;;8.30;2.07;;;11.80;96.30;;;;;;4956814;28;20433;-79
2022/09/17 09:07:36;;;;;;;9.40;1.90;;;11.90;96.30;;;;;;4956165;28;20415;-77
2022/09/17 09:10:27;;;;;;;5.63;1.50;;;11.90;96.30;;;;;;4966679;28;21020;-76
2022/09/17 09:12:56;;;;;;;5.40;1.83;;;11.90;96.30;;;;;;4975154;28;20973;-77
2022/09/17 09:15:29;;;;;;;14.67;1.87;;;11.90;96.30;;;;;;4975443;28;20433;-76
2022/09/17 09:18:02;;;;;;;6.50;1.47;;;12.30;96.30;;;;;;4975138;28;20432;-76
2022/09/17 09:20:34;;;;;;;10.53;1.47;;;12.50;96.30;;;;;;4975320;28;20417;-76
2022/09/17 09:23:14;;;;;;;7.03;1.33;;;13.00;96.30;;;;;;4975856;28;20952;-76
2022/09/17 09:25:51;;;;;;;9.07;1.57;;;12.80;96.30;;;;;;4976270;28;20745;-76
2022/09/17 09:28:34;;;;;;;9.07;1.80;;;13.10;96.30;;;;;;4976250;28;20409;-76
2022/09/17 09:31:22;;;;;;;9.43;1.50;;;13.00;96.30;;;;;;4984212;28;20470;-76
2022/09/17 09:33:48;;;;;;;8.10;1.40;;;12.70;96.30;;;;;;4948324;29;20426;-78
2022/09/17 09:36:20;;;;;;;9.60;1.57;;;12.40;96.30;;;;;;4946235;29;20441;-78
2022/09/17 09:38:57;;;;;;;16.23;2.43;;;12.10;96.30;;;;;;4944992;29;20519;-78
2022/09/17 09:41:49;;;;;;;11.60;2.00;;;12.20;96.30;;;;;;4948380;29;20514;-78
2022/09/17 09:44:16;;;;;;;6.77;1.40;;;12.30;96.30;;;;;;4965884;28;20532;-77
2022/09/17 09:47:06;;;;;;;6.60;0.97;;;12.80;96.30;;;;;;4947110;28;20510;-77
2022/09/17 09:50:02;;;;;;;6.93;1.73;;;13.80;96.30;;;;;;4947677;29;20403;-77
2022/09/17 09:52:50;;;;;;;3.10;0.90;;;14.30;96.30;;;;;;4947143;29;20997;-77
2022/09/17 09:55:53;;;;;;;6.80;1.50;;;13.80;96.30;;;;;;4945591;29;20411;-78
2022/09/17 09:58:38;;;;;;;10.13;1.53;;;13.00;96.30;;;;;;4943552;29;20420;-78
2022/09/17 10:01:16;;;;;;;5.27;1.17;;;12.50;96.30;;;;;;4946794;29;20443;-80
2022/09/17 10:03:44;;;;;;;10.50;2.00;;;12.60;96.30;;;;;;4941271;29;20425;-79
2022/09/17 10:06:11;;;;;;;6.67;1.27;;;13.10;96.30;;;;;;4941120;29;20494;-79
2022/09/17 10:08:40;;;;;;;6.00;1.43;;;13.30;96.30;;;;;;4957796;28;20418;-79
2022/09/17 10:11:11;;;;;;;7.93;1.30;;;13.40;96.30;;;;;;4982930;28;20498;-78
2022/09/17 10:13:37;;;;;;;5.93;1.27;;;13.00;96.30;;;;;;5013529;28;20429;-78
2022/09/17 10:16:23;;;;;;;6.83;1.67;;;12.50;96.30;;;;;;5031101;23;20975;-81
2022/09/17 10:19:08;;;;;;;2.47;0.90;;;11.50;96.30;;;;;;4978959;28;20466;-81
2022/09/17 10:21:38;;;;;;;3.03;1.00;;;10.50;96.30;;;;;;4980305;28;20418;-81
2022/09/17 10:24:23;;;;;;;1.60;1.03;;;9.90;96.30;;;;;;4965571;28;20473;-78
2022/09/17 10:26:49;;;;;;;4.10;0.93;;;10.00;96.30;;;;;;4966872;28;20449;-79
2022/09/17 10:29:18;;;;;;;4.90;1.00;;;10.50;96.30;;;;;;4974321;28;20405;-80
2022/09/17 10:31:51;;;;;;;5.70;0.80;;;11.20;96.30;;;;;;4960570;28;20683;-79
2022/09/17 10:34:20;;;;;;;3.77;1.10;;;11.70;96.30;;;;;;4955179;28;20758;-79
2022/09/17 10:36:47;;;;;;;3.53;1.10;;;11.70;96.30;;;;;;4955200;28;20419;-79
2022/09/17 10:39:26;;;;;;;6.40;1.60;;;12.00;96.30;;;;;;4953403;29;20446;-79
2022/09/17 10:42:02;;;;;;;3.67;1.17;;;12.30;96.30;;;;;;4966695;28;20496;-79
2022/09/17 10:44:33;;;;;;;4.60;1.13;;;12.30;96.30;;;;;;4973955;28;20425;-79
2022/09/17 10:47:30;;;;;;;6.27;1.57;;;12.40;96.30;;;;;;4973988;28;20914;-80
2022/09/17 10:50:31;;;;;;;6.23;1.33;;;12.60;96.30;;;;;;4988110;28;20422;-79
2022/09/17 10:53:00;;;;;;;4.57;1.30;;;12.70;96.30;;;;;;4951918;28;20418;-78
2022/09/17 10:55:40;;;;;;;7.07;1.57;;;12.50;96.30;;;;;;4973781;28;20421;-78
2022/09/17 10:58:09;;;;;;;4.50;1.40;;;11.90;96.30;;;;;;4973197;28;20435;-79
2022/09/17 11:01:30;;;;;;;11.20;1.13;;;11.70;96.30;;;;;;4973416;28;20426;-76
2022/09/17 11:04:34;;;;;;;6.47;1.20;;;10.80;96.30;;;;;;4927280;29;20439;-78
2022/09/17 11:07:09;;;;;;;5.60;1.27;;;10.70;96.30;;;;;;4920006;29;20420;-79
2022/09/17 11:10:01;;;;;;;4.93;1.00;;;10.80;96.30;;;;;;4932726;29;20426;-77
2022/09/17 11:12:59;;;;;;;11.13;1.70;;;11.20;96.30;;;;;;4933325;29;20818;-79
2022/09/17 11:15:52;;;;;;;11.90;1.50;;;12.20;96.30;;;;;;4934981;29;20424;-80
2022/09/17 11:18:38;;;;;;;5.03;1.30;;;12.70;96.30;;;;;;4934262;29;20411;-79
2022/09/17 11:21:31;;;;;;;8.73;1.93;;;13.10;96.30;;;;;;4934899;29;20452;-76
2022/09/17 11:24:32;;;;;;;4.50;1.47;;;13.00;96.30;;;;;;4937893;29;20411;-76
2022/09/17 11:27:19;;;;;;;6.10;1.57;;;13.00;96.30;;;;;;4935121;29;20486;-75
2022/09/17 11:29:55;;;;;;;3.43;1.83;;;13.20;96.30;;;;;;4936532;29;20788;-75
2022/09/17 11:32:54;;;;;;;7.97;1.37;;;13.30;96.30;;;;;;4938589;29;20832;-74
2022/09/17 11:35:34;;;;;;;6.23;1.33;;;13.10;96.30;;;;;;4938746;29;20448;-74
2022/09/17 11:38:08;;;;;;;7.37;1.60;;;13.20;96.30;;;;;;4938073;29;20427;-73
2022/09/17 11:40:46;;;;;;;8.10;1.57;;;13.20;96.30;;;;;;4944283;28;20475;-73
2022/09/17 11:43:23;;;;;;;7.10;1.40;;;13.00;96.30;;;;;;4976866;28;20464;-73
2022/09/17 11:46:15;;;;;;;6.47;1.47;;;12.70;96.30;;;;;;4976663;28;20413;-74
2022/09/17 11:48:46;;;;;;;5.23;1.60;;;12.50;96.30;;;;;;4966998;28;20489;-73
2022/09/17 11:51:18;;;;;;;7.00;1.70;;;12.20;96.30;;;;;;4976660;28;20484;-74
2022/09/17 11:53:49;;;;;;;3.87;1.10;;;12.00;96.30;;;;;;4976781;28;20394;-74
2022/09/17 11:56:35;;;;;;;5.87;1.90;;;11.70;96.30;;;;;;4976613;28;20506;-73
2022/09/17 11:59:24;;;;;;;4.83;1.33;;;11.20;96.30;;;;;;4989671;28;20433;-73
2022/09/17 12:01:57;;;;;;;7.70;1.80;;;11.50;96.30;;;;;;4953608;28;20922;-74
2022/09/17 12:04:34;;;;;;;8.43;1.80;;;11.90;96.30;;;;;;4952279;28;20440;-73
2022/09/17 12:07:18;;;;;;;4.60;1.37;;;12.10;96.30;;;;;;4946372;28;20424;-73
2022/09/17 12:09:49;;;;;;;4.80;1.50;;;12.40;96.30;;;;;;4954287;28;20778;-73
2022/09/17 12:12:22;;;;;;;9.10;1.57;;;12.60;96.30;;;;;;4946492;28;20437;-73
2022/09/17 12:15:11;;;;;;;7.30;1.43;;;12.90;96.30;;;;;;4948283;28;20394;-73
2022/09/17 12:17:42;;;;;;;9.03;1.43;;;12.90;96.30;;;;;;4947094;29;20464;-73
2022/09/17 12:20:32;;;;;;;7.90;1.80;;;12.70;96.30;;;;;;4945919;29;20411;-73
2022/09/17 12:23:03;;;;;;;10.77;1.47;;;12.50;96.30;;;;;;4947809;29;20442;-72
2022/09/17 12:25:48;;;;;;;7.90;1.37;;;12.10;96.30;;;;;;4946529;29;20408;-73
2022/09/17 12:28:20;;;;;;;5.33;1.53;;;12.30;96.30;;;;;;4949109;29;20521;-72
2022/09/17 12:31:01;;;;;;;9.83;1.47;;;13.30;96.30;;;;;;4951404;28;20527;-72
2022/09/17 12:33:54;;;;;;;6.90;1.47;;;13.70;96.30;;;;;;4960579;28;20425;-75
2022/09/17 12:36:30;;;;;;;6.33;1.47;;;14.10;96.30;;;;;;4936745;29;20450;-72
2022/09/17 12:39:08;;;;;;;5.70;1.43;;;14.20;96.30;;;;;;4936600;29;20400;-73
2022/09/17 12:41:48;;;;;;;8.07;2.47;;;13.60;96.30;;;;;;4958846;28;20441;-73
2022/09/17 12:44:48;;;;;;;11.30;2.10;;;12.70;96.30;;;;;;4953087;28;20442;-73
2022/09/17 12:47:30;;;;;;;9.30;2.00;;;12.10;96.30;;;;;;4956212;28;20427;-73
2022/09/17 12:50:00;;;;;;;3.57;1.33;;;11.80;96.30;;;;;;4953208;28;20438;-74
2022/09/17 12:52:52;;;;;;;7.07;1.60;;;11.40;96.30;;;;;;4951458;28;20981;-76
2022/09/17 12:55:36;;;;;;;5.43;1.30;;;11.20;96.30;;;;;;4954336;28;20537;-74
2022/09/17 12:58:33;;;;;;;5.80;1.53;;;10.50;96.30;;;;;;4952018;28;20419;-74
2022/09/17 13:01:19;;;;;;;7.80;1.67;;;10.10;96.30;;;;;;4950949;28;20446;-74
2022/09/17 13:03:56;;;;;;;5.30;1.30;;;10.00;96.30;;;;;;4944829;29;20423;-73
2022/09/17 13:06:51;;;;;;;5.00;1.57;;;10.00;96.30;;;;;;4946056;29;20415;-74
2022/09/17 13:10:06;;;;;;;8.27;1.13;;;10.30;96.30;;;;;;4940461;28;20462;-73
2022/09/17 13:13:06;;;;;;;5.20;1.30;;;11.10;96.30;;;;;;4943540;28;20933;-74
2022/09/17 13:15:45;;;;;;;5.47;1.57;;;11.70;96.30;;;;;;4940802;29;20478;-74
2022/09/17 13:18:22;;;;;;;7.63;1.30;;;12.20;96.30;;;;;;4946525;29;20804;-78
2022/09/17 13:21:06;;;;;;;6.93;1.50;;;12.50;96.30;;;;;;4955842;28;20434;-75
2022/09/17 13:23:42;;;;;;;9.17;1.40;;;12.10;96.30;;;;;;4955953;29;20894;-75
2022/09/17 13:26:10;;;;;;;7.67;1.77;;;11.80;96.30;;;;;;4955807;29;20945;-74
2022/09/17 13:28:41;;;;;;;8.00;1.40;;;11.40;96.30;;;;;;4955280;29;20490;-75
2022/09/17 13:31:07;;;;;;;4.33;1.37;;;11.40;96.30;;;;;;4955606;29;20458;-76
2022/09/17 13:33:56;;;;;;;4.10;1.50;;;11.30;96.30;;;;;;4955371;29;20421;-75
2022/09/17 13:36:41;;;;;;;4.10;1.03;;;11.10;96.30;;;;;;4956000;29;20403;-76
2022/09/17 13:39:10;;;;;;;6.33;1.50;;;11.40;96.30;;;;;;4954379;28;20438;-76
2022/09/17 13:41:39;;;;;;;5.37;1.40;;;11.60;96.30;;;;;;4946391;28;20446;-78
2022/09/17 13:44:07;;;;;;;5.37;1.50;;;12.00;96.30;;;;;;4955503;28;20417;-76
2022/09/17 13:46:34;;;;;;;12.53;1.83;;;12.30;96.30;;;;;;4951127;29;20461;-78
2022/09/17 13:49:03;;;;;;;8.73;1.20;;;12.40;96.30;;;;;;4936268;28;20903;-78
2022/09/17 13:51:28;;;;;;;8.90;1.70;;;12.50;96.30;;;;;;4955650;28;20473;-78
2022/09/17 13:53:56;;;;;;;8.23;1.70;;;12.60;96.30;;;;;;4954563;28;20415;-78
2022/09/17 13:56:32;;;;;;;4.93;1.80;;;12.60;96.30;;;;;;4953974;28;20272;-78
2022/09/17 13:59:08;;;;;;;5.90;1.70;;;12.90;96.30;;;;;;4953996;28;20414;-78
2022/09/17 14:02:00;;;;;;;5.07;1.50;;;13.20;96.30;;;;;;4953273;29;20442;-78
2022/09/17 14:04:41;;;;;;;4.20;1.40;;;13.20;96.30;;;;;;4954298;28;20410;-77
2022/09/17 14:07:28;;;;;;;7.40;1.80;;;13.20;96.30;;;;;;4954990;28;20414;-77
2022/09/17 14:10:20;;;;;;;8.50;1.60;;;13.20;96.30;;;;;;4954757;28;20411;-77
2022/09/17 14:12:51;;;;;;;4.30;1.30;;;13.20;96.30;;;;;;4954952;28;20450;-77
2022/09/17 14:15:34;;;;;;;4.43;0.90;;;12.90;96.30;;;;;;4954944;28;20415;-77
2022/09/17 14:18:03;;;;;;;9.70;1.60;;;13.00;96.30;;;;;;4954683;28;20438;-77
2022/09/17 14:20:31;;;;;;;4.30;1.40;;;13.20;96.30;;;;;;4953599;29;20434;-77
2022/09/17 14:22:59;;;;;;;8.73;1.83;;;13.50;96.30;;;;;;4954749;28;20419;-77
2022/09/17 14:25:41;;;;;;;5.67;0.97;;;13.80;96.30;;;;;;4954720;28;20440;-77
2022/09/17 14:28:29;;;;;;;7.97;1.13;;;14.20;96.30;;;;;;4954328;28;20949;-77
2022/09/17 14:30:55;;;;;;;4.73;1.30;;;13.80;96.30;;;;;;4954544;28;20521;-77
2022/09/17 14:33:27;;;;;;;8.83;1.20;;;13.20;96.30;;;;;;4954593;29;20438;-77
2022/09/17 14:35:59;;;;;;;5.93;1.37;;;12.80;96.30;;;;;;4953263;29;20178;-77
2022/09/17 14:38:53;;;;;;;10.00;2.30;;;12.50;96.30;;;;;;4954290;28;20903;-77
2022/09/17 14:41:23;;;;;;;5.60;1.30;;;12.10;96.30;;;;;;4948318;28;20478;-76
2022/09/17 14:44:08;;;;;;;5.83;1.47;;;11.60;96.30;;;;;;4957262;28;20914;-78
2022/09/17 14:46:52;;;;;;;5.27;1.00;;;11.20;96.30;;;;;;4956978;28;20477;-79
2022/09/17 14:49:23;;;;;;;2.80;0.90;;;11.40;96.30;;;;;;4945913;29;20486;-76
2022/09/17 14:51:53;;;;;;;4.83;1.20;;;12.10;96.30;;;;;;4942008;29;21006;-76
2022/09/17 14:54:21;;;;;;;3.17;1.43;;;12.30;96.30;;;;;;4945970;28;20418;-76
2022/09/17 14:56:56;;;;;;;2.73;1.03;;;12.70;96.30;;;;;;4941780;29;21127;-76
2022/09/17 14:59:49;;;;;;;4.60;1.27;;;12.70;96.30;;;;;;4940926;29;20419;-76
2022/09/17 15:02:27;;;;;;;3.33;0.80;;;12.90;96.30;;;;;;4943874;28;20973;-77
2022/09/17 15:04:53;;;;;;;3.53;1.10;;;12.60;96.30;;;;;;4950594;28;20422;-76
2022/09/17 15:07:20;;;;;;;5.40;1.13;;;12.30;96.30;;;;;;4960866;28;20422;-76
2022/09/17 15:09:46;;;;;;;6.63;1.33;;;12.70;96.30;;;;;;4945321;28;20218;-77
2022/09/17 15:12:16;;;;;;;2.40;1.00;;;13.10;96.30;;;;;;4958544;28;20572;-76
2022/09/17 15:14:44;;;;;;;6.97;2.90;;;13.30;96.30;;;;;;4962363;28;20804;-76
2022/09/17 15:17:17;;;;;;;7.30;1.83;;;13.40;96.30;;;;;;4961716;28;20562;-76
2022/09/17 15:19:47;;;;;;;3.00;0.90;;;13.20;96.30;;;;;;4954558;28;20913;-76
2022/09/17 15:22:27;;;;;;;6.40;1.30;;;13.10;96.30;;;;;;4958709;28;20429;-76
2022/09/17 15:25:03;;;;;;;9.30;1.27;;;13.00;96.30;;;;;;4962150;28;20442;-76
2022/09/17 15:27:39;;;;;;;3.80;0.93;;;12.80;96.30;;;;;;4957759;28;20438;-76
2022/09/17 15:30:14;;;;;;;5.00;1.50;;;12.70;96.30;;;;;;4953365;28;20422;-75
2022/09/17 15:32:47;;;;;;;4.27;1.10;;;12.50;96.30;;;;;;4961553;28;20903;-76
2022/09/17 15:35:12;;;;;;;4.83;1.20;;;12.30;96.30;;;;;;4965642;28;20418;-76
2022/09/17 15:37:45;;;;;;;6.70;1.23;;;12.50;96.30;;;;;;4965380;28;20982;-76
2022/09/17 15:40:32;;;;;;;7.33;1.20;;;12.30;96.30;;;;;;4958208;28;20186;-76
2022/09/17 15:43:04;;;;;;;5.20;1.43;;;12.20;96.30;;;;;;4964346;28;20805;-76
2022/09/17 15:45:36;;;;;;;3.20;1.03;;;12.10;96.30;;;;;;4957348;28;20442;-76
2022/09/17 15:48:02;;;;;;;7.97;2.10;;;12.10;96.30;;;;;;4954455;28;20418;-76
2022/09/17 15:50:48;;;;;;;6.13;1.60;;;11.80;96.30;;;;;;4944942;28;20455;-76
2022/09/17 15:53:23;;;;;;;12.93;1.37;;;11.60;96.30;;;;;;4957091;28;21043;-76
2022/09/17 15:56:13;;;;;;;7.13;1.27;;;11.50;96.30;;;;;;4965624;28;20406;-78
2022/09/17 15:58:41;;;;;;;6.07;1.10;;;11.50;96.30;;;;;;4945182;29;20401;-79
2022/09/17 16:01:13;;;;;;;8.10;1.63;;;11.70;96.30;;;;;;4944363;29;20522;-81
2022/09/17 16:03:39;;;;;;;6.33;1.97;;;11.80;96.30;;;;;;4952438;28;20434;-79
2022/09/17 16:06:19;;;;;;;5.10;1.60;;;11.80;96.30;;;;;;4933270;29;20411;-78
2022/09/17 16:08:56;;;;;;;7.60;1.30;;;12.00;96.30;;;;;;4937469;28;20594;-79
2022/09/17 16:11:24;;;;;;;2.80;1.10;;;12.00;96.30;;;;;;4969261;28;20473;-78
2022/09/17 16:13:55;;;;;;;8.43;1.97;;;12.10;96.30;;;;;;4966112;28;20446;-78
2022/09/17 16:16:32;;;;;;;8.40;1.70;;;12.10;96.30;;;;;;4959315;28;20430;-79
2022/09/17 16:18:57;;;;;;;6.93;1.40;;;12.10;96.30;;;;;;4954198;29;20414;-81
2022/09/17 16:30:04;;;;;;;3.30;1.07;;;11.40;96.30;;;;;;4955728;28;20436;-80
2022/09/17 16:32:29;;;;;;;6.33;1.53;;;11.20;96.30;;;;;;4954247;28;20465;-80
2022/09/17 16:34:55;;;;;;;5.50;1.07;;;11.00;96.30;;;;;;4954688;28;20484;-79
2022/09/17 16:37:20;;;;;;;8.07;1.30;;;10.90;96.30;;;;;;4954441;29;20180;-79
2022/09/17 16:39:46;;;;;;;3.10;0.83;;;10.70;96.30;;;;;;4954812;28;20186;-79
2022/09/17 16:42:11;;;;;;;5.13;1.37;;;10.70;96.30;;;;;;4954689;29;20203;-79
2022/09/17 16:44:37;;;;;;;12.17;1.30;;;10.50;96.30;;;;;;4949592;28;20207;-80
2022/09/17 16:47:02;;;;;;;3.90;1.10;;;10.30;96.30;;;;;;4955940;29;20295;-80
2022/09/17 16:49:28;;;;;;;5.10;1.10;;;10.10;96.30;;;;;;4956375;28;20579;-77
2022/09/17 16:51:53;;;;;;;3.07;1.20;;;9.90;96.30;;;;;;4955198;28;20218;-78
2022/09/17 16:54:19;;;;;;;3.83;1.20;;;9.90;96.30;;;;;;4955306;28;20178;-78
2022/09/17 16:56:44;;;;;;;6.17;1.30;;;9.80;96.30;;;;;;4955104;28;20226;-79
2022/09/17 16:59:10;;;;;;;2.30;1.00;;;9.70;96.30;;;;;;4956244;29;20178;-78
2022/09/17 17:01:37;;;;;;;4.40;1.40;;;9.50;96.30;;;;;;4956335;29;20671;-78
2022/09/17 17:04:03;;;;;;;3.93;1.10;;;9.40;96.30;;;;;;4955489;28;20597;-78
2022/09/17 17:06:28;;;;;;;5.20;1.30;;;9.30;96.30;;;;;;4956385;29;20415;-78
2022/09/17 17:08:54;;;;;;;6.70;1.10;;;9.30;96.30;;;;;;4956157;29;20230;-79
2022/09/17 17:11:19;;;;;;;4.83;1.67;;;9.20;96.30;;;;;;4954968;28;20221;-78
2022/09/17 17:13:46;;;;;;;7.23;1.50;;;9.10;96.30;;;;;;4956324;29;20171;-79
2022/09/17 17:16:14;;;;;;;1.87;0.80;;;9.00;96.30;;;;;;4956167;28;20167;-79
2022/09/17 17:18:43;;;;;;;3.27;0.70;;;8.90;96.30;;;;;;4954795;28;20414;-79
2022/09/17 17:21:11;;;;;;;2.03;0.53;;;8.80;96.30;;;;;;4954746;28;20449;-78
2022/09/17 17:23:37;;;;;;;1.50;0.80;;;8.60;96.30;;;;;;4956030;28;20425;-78
2022/09/17 17:26:02;;;;;;;1.53;0.70;;;8.50;96.30;;;;;;4954829;29;20418;-79
2022/09/17 17:28:32;;;;;;;1.80;0.90;;;8.40;96.30;;;;;;4955822;28;20635;-79
2022/09/17 17:30:57;;;;;;;2.07;0.70;;;8.30;96.30;;;;;;4955683;29;20219;-79
2022/09/17 17:33:23;;;;;;;1.27;0.63;;;8.20;96.30;;;;;;4955960;29;20776;-78